< < Back
Terminal Aerodrome Forecast


Current Version              Previous Versions:   1  2  3  4  5  6  7  8  9  

Terminal Aerodrome Forecast

667
FTUS44 KHUN 012331
TAFHSV
TAF
KHSV 012331Z 0200/0224 16006KT P6SM VCSH FEW020 SCT100 BKN200
     FM021200 23010KT 4SM -SHRA SCT030 BKN080 PROB30 0217/0220 -TSRA
      BKN030CB
     FM022000 21012KT P6SM VCTS SCT030CB BKN080=



Latest METAR

801
SAUS80 KWBC 022200 CCA
MTRHSV
METAR KHSV 022153Z 23009KT 10SM FEW045 SCT140 BKN250 31/19 A2992 RMK AO2
SLP124 T03060194


USA.gov is the U.S. government's official web portal to all federal, state and local government web resources and services.